Terminal Aerodrome Forecast
Issued by NWS

Home | Current Version | Previous Version | Text Only | Print | Product List | Glossary On
Versions: 1 2 3 4 5 6 7 8 9 10 11 12 13 14
000
FTUS46 KPDT 040028 AAA
TAFRDM
TAF AMD
KRDM 040028Z 0400/0424 30015G25KT P6SM SCT090
     FM040400 32004KT P6SM SCT050 BKN150
     FM041500 34004KT P6SM BKN050 OVC100
     FM041900 35015G20KT P6SM VCSH OVC050=

USA.gov is the U.S. government's official web portal to all federal, state and local government web resources and services.